Time,TemperatureF,DewpointF,PressureIn,WindDirection,WindDirectionDegrees,WindSpeedMPH,WindSpeedGustMPH,Humidity,HourlyPrecipIn,Conditions,Clouds,dailyrainin,SoftwareType,DateUTC
2013-04-10 00:12:00,70.3,61.0,29.14,East,82,3.0,5.0,72,0.00,,,0.00,weatherlink.com 1.10,2013-04-10 05:12:00,
2013-04-10 00:27:00,70.5,61.0,29.13,ESE,107,3.0,7.0,73,0.00,,,0.00,weatherlink.com 1.10,2013-04-10 05:27:00,
2013-04-10 00:42:00,70.7,62.0,29.12,SE,124,5.0,7.0,73,0.00,,,0.00,weatherlink.com 1.10,2013-04-10 05:42:00,
2013-04-10 00:57:00,70.0,61.0,29.12,SSE,152,2.0,7.0,74,0.00,,,0.00,weatherlink.com 1.10,2013-04-10 05:57:00,
2013-04-10 01:12:00,69.4,62.0,29.12,East,94,3.0,7.0,76,0.00,,,0.00,weatherlink.com 1.10,2013-04-10 06:12:00,
2013-04-10 01:27:00,68.9,61.0,29.13,ESE,103,3.0,5.0,77,0.00,,,0.00,weatherlink.com 1.10,2013-04-10 06:27:00,
2013-04-10 01:42:00,68.5,61.0,29.12,ESE,107,5.0,7.0,78,0.00,,,0.00,weatherlink.com 1.10,2013-04-10 06:42:00,
2013-04-10 01:57:00,68.2,61.0,29.13,ESE,105,2.0,6.0,79,0.00,,,0.00,weatherlink.com 1.10,2013-04-10 06:57:00,
2013-04-10 02:12:00,67.9,61.0,29.14,East,92,1.0,2.0,79,0.00,,,0.00,weatherlink.com 1.10,2013-04-10 07:12:00,
2013-04-10 02:27:00,68.0,62.0,29.14,ENE,69,2.0,5.0,80,0.00,,,0.00,weatherlink.com 1.10,2013-04-10 07:27:00,
2013-04-10 02:42:00,68.6,62.0,29.13,ENE,75,2.0,5.0,79,0.00,,,0.00,weatherlink.com 1.10,2013-04-10 07:42:00,
2013-04-10 02:57:00,69.1,62.0,29.12,SE,127,5.0,6.0,79,0.00,,,0.00,weatherlink.com 1.10,2013-04-10 07:57:00,
2013-04-10 03:12:00,69.0,62.0,29.11,ESE,103,5.0,7.0,79,0.00,,,0.00,weatherlink.com 1.10,2013-04-10 08:12:00,
2013-04-10 03:27:00,68.6,62.0,29.10,East,89,5.0,8.0,80,0.00,,,0.00,weatherlink.com 1.10,2013-04-10 08:27:00,
2013-04-10 03:42:00,68.7,63.0,29.10,East,98,4.0,7.0,81,0.00,,,0.00,weatherlink.com 1.10,2013-04-10 08:42:00,
2013-04-10 03:57:00,68.7,63.0,29.10,ESE,122,3.0,7.0,81,0.00,,,0.00,weatherlink.com 1.10,2013-04-10 08:57:00,
2013-04-10 04:12:00,68.8,63.0,29.11,ESE,103,4.0,8.0,82,0.00,,,0.00,weatherlink.com 1.10,2013-04-10 09:12:00,
2013-04-10 04:27:00,68.4,63.0,29.10,East,98,4.0,6.0,82,0.00,,,0.00,weatherlink.com 1.10,2013-04-10 09:27:00,
2013-04-10 04:43:00,68.2,63.0,29.09,SE,128,2.0,7.0,83,0.00,,,0.00,weatherlink.com 1.10,2013-04-10 09:43:00,
2013-04-10 04:58:00,68.6,63.0,29.08,East,81,4.0,8.0,83,0.00,,,0.00,weatherlink.com 1.10,2013-04-10 09:58:00,
2013-04-10 05:13:00,68.8,64.0,29.07,SE,125,5.0,8.0,83,0.00,,,0.00,weatherlink.com 1.10,2013-04-10 10:13:00,
2013-04-10 05:28:00,68.7,63.0,29.08,ESE,113,6.0,10.0,83,0.00,,,0.00,weatherlink.com 1.10,2013-04-10 10:28:00,
2013-04-10 05:43:00,68.8,64.0,29.08,South,177,3.0,8.0,83,0.00,,,0.00,weatherlink.com 1.10,2013-04-10 10:43:00,
2013-04-10 05:58:00,69.1,64.0,29.08,SSW,201,1.0,9.0,83,0.00,,,0.00,weatherlink.com 1.10,2013-04-10 10:58:00,
2013-04-10 06:13:00,69.2,64.0,29.08,ESE,110,2.0,6.0,83,0.00,,,0.00,weatherlink.com 1.10,2013-04-10 11:13:00,
2013-04-10 06:28:00,69.4,64.0,29.09,ESE,120,2.0,8.0,83,0.00,,,0.00,weatherlink.com 1.10,2013-04-10 11:28:00,
2013-04-10 06:43:00,70.1,64.0,29.09,SSW,211,8.0,11.0,82,0.00,,,0.00,weatherlink.com 1.10,2013-04-10 11:43:00,
2013-04-10 06:58:00,70.8,64.0,29.12,NW,312,12.0,13.0,80,0.00,,,0.00,weatherlink.com 1.10,2013-04-10 11:58:00,
2013-04-10 07:13:00,71.5,64.0,29.14,WSW,245,6.0,8.0,77,0.00,,,0.00,weatherlink.com 1.10,2013-04-10 12:13:00,
2013-04-10 07:28:00,70.7,64.0,29.14,WSW,250,2.0,5.0,78,0.00,,,0.00,weatherlink.com 1.10,2013-04-10 12:28:00,
2013-04-10 07:43:00,70.4,61.0,29.14,NNW,333,0.0,5.0,73,0.00,,,0.00,weatherlink.com 1.10,2013-04-10 12:43:00,
2013-04-10 07:58:00,70.0,62.0,29.14,SSW,201,0.0,1.0,76,0.00,,,0.00,weatherlink.com 1.10,2013-04-10 12:58:00,
2013-04-10 08:13:00,68.8,62.0,29.13,NNW,330,0.0,1.0,79,0.00,,,0.00,weatherlink.com 1.10,2013-04-10 13:13:00,
2013-04-10 08:28:00,68.5,63.0,29.13,SW,217,0.0,1.0,81,0.00,,,0.00,weatherlink.com 1.10,2013-04-10 13:28:00,
2013-04-10 08:43:00,68.3,63.0,29.14,SSE,162,0.0,1.0,83,0.00,,,0.00,weatherlink.com 1.10,2013-04-10 13:43:00,
2013-04-10 08:58:00,68.4,63.0,29.14,SSE,147,0.0,2.0,84,0.01,,,0.01,weatherlink.com 1.10,2013-04-10 13:58:00,
2013-04-10 09:13:00,68.4,63.0,29.15,West,273,0.0,1.0,83,0.01,,,0.01,weatherlink.com 1.10,2013-04-10 14:13:00,
2013-04-10 09:29:00,68.4,63.0,29.15,North,354,0.0,2.0,82,0.01,,,0.01,weatherlink.com 1.10,2013-04-10 14:29:00,
2013-04-10 09:43:00,68.2,64.0,29.15,ESE,108,0.0,1.0,85,0.02,,,0.02,weatherlink.com 1.10,2013-04-10 14:43:00,
2013-04-10 09:58:00,67.5,64.0,29.14,ESE,102,1.0,2.0,88,0.02,,,0.03,weatherlink.com 1.10,2013-04-10 14:58:00,
2013-04-10 10:13:00,67.9,64.0,29.14,East,85,0.0,2.0,87,0.02,,,0.03,weatherlink.com 1.10,2013-04-10 15:13:00,
2013-04-10 10:28:00,68.5,64.0,29.15,NW,312,3.0,5.0,85,0.02,,,0.03,weatherlink.com 1.10,2013-04-10 15:28:00,
2013-04-10 10:43:00,66.3,61.0,29.16,NW,311,3.0,12.0,84,0.01,,,0.03,weatherlink.com 1.10,2013-04-10 15:43:00,
2013-04-10 10:58:00,64.2,60.0,29.15,NNE,25,6.0,7.0,87,0.00,,,0.03,weatherlink.com 1.10,2013-04-10 15:58:00,
2013-04-10 11:13:00,64.6,61.0,29.16,West,280,2.0,5.0,88,0.00,,,0.03,weatherlink.com 1.10,2013-04-10 16:13:00,
2013-04-10 11:28:00,64.5,61.0,29.17,WNW,284,4.0,10.0,87,0.01,,,0.04,weatherlink.com 1.10,2013-04-10 16:28:00,
2013-04-10 11:58:00,63.8,60.0,29.15,WNW,294,2.0,7.0,88,0.01,,,0.04,weatherlink.com 1.10,2013-04-10 16:58:00,
2013-04-10 12:13:00,64.9,61.0,29.14,ENE,75,2.0,5.0,87,0.01,,,0.04,weatherlink.com 1.10,2013-04-10 17:13:00,
2013-04-10 12:28:00,66.3,62.0,29.13,ENE,64,4.0,7.0,85,0.00,,,0.04,weatherlink.com 1.10,2013-04-10 17:28:00,
2013-04-10 12:43:00,68.1,62.0,29.13,NNW,327,1.0,4.0,82,0.00,,,0.04,weatherlink.com 1.10,2013-04-10 17:43:00,
2013-04-10 12:58:00,70.1,64.0,29.12,NNW,347,1.0,3.0,80,0.00,,,0.04,weatherlink.com 1.10,2013-04-10 17:58:00,
2013-04-10 13:13:00,72.1,64.0,29.10,ENE,60,5.0,7.0,76,0.00,,,0.04,weatherlink.com 1.10,2013-04-10 18:13:00,
2013-04-10 13:28:00,72.9,65.0,29.10,ENE,72,2.0,6.0,75,0.00,,,0.04,weatherlink.com 1.10,2013-04-10 18:28:00,
2013-04-10 13:43:00,74.9,66.0,29.09,NE,54,1.0,5.0,73,0.00,,,0.04,weatherlink.com 1.10,2013-04-10 18:43:00,
2013-04-10 13:58:00,76.4,66.0,29.08,NNE,29,4.0,6.0,69,0.00,,,0.04,weatherlink.com 1.10,2013-04-10 18:58:00,
2013-04-10 14:13:00,78.1,66.0,29.07,NE,39,1.0,5.0,67,0.00,,,0.04,weatherlink.com 1.10,2013-04-10 19:13:00,
2013-04-10 14:29:00,79.9,67.0,29.06,NE,49,4.0,5.0,64,0.00,,,0.04,weatherlink.com 1.10,2013-04-10 19:29:00,
2013-04-10 14:44:00,80.4,66.0,29.05,ENE,61,2.0,5.0,62,0.00,,,0.04,weatherlink.com 1.10,2013-04-10 19:44:00,
2013-04-10 14:59:00,81.2,66.0,29.04,East,92,3.0,5.0,61,0.00,,,0.04,weatherlink.com 1.10,2013-04-10 19:59:00,
2013-04-10 15:14:00,81.9,65.0,29.02,SSW,200,9.0,21.0,57,0.00,,,0.04,weatherlink.com 1.10,2013-04-10 20:14:00,
2013-04-10 15:29:00,81.8,65.0,29.01,SSE,160,14.0,17.0,57,0.00,,,0.04,weatherlink.com 1.10,2013-04-10 20:29:00,
2013-04-10 15:44:00,81.5,65.0,28.98,ESE,122,10.0,19.0,57,0.00,,,0.04,weatherlink.com 1.10,2013-04-10 20:44:00,
2013-04-10 15:59:00,74.4,65.0,29.01,West,260,14.0,27.0,72,0.00,,,0.04,weatherlink.com 1.10,2013-04-10 20:59:00,
2013-04-10 16:14:00,70.3,65.0,29.02,North,1,2.0,8.0,84,0.00,,,0.04,weatherlink.com 1.10,2013-04-10 21:14:00,
2013-04-10 16:29:00,70.2,66.0,29.00,ESE,117,2.0,6.0,87,0.08,,,0.12,weatherlink.com 1.10,2013-04-10 21:29:00,
2013-04-10 16:44:00,71.1,67.0,28.98,WNW,287,1.0,3.0,87,0.08,,,0.12,weatherlink.com 1.10,2013-04-10 21:44:00,
2013-04-10 16:59:00,70.8,67.0,28.98,North,4,3.0,6.0,87,0.08,,,0.12,weatherlink.com 1.10,2013-04-10 21:59:00,
2013-04-10 17:14:00,70.0,66.0,28.98,NNE,18,4.0,8.0,87,0.08,,,0.12,weatherlink.com 1.10,2013-04-10 22:14:00,
2013-04-10 17:29:00,68.7,65.0,28.97,East,86,3.0,13.0,87,0.00,,,0.12,weatherlink.com 1.10,2013-04-10 22:29:00,
2013-04-10 17:44:00,69.0,65.0,28.95,North,11,1.0,3.0,87,0.00,,,0.12,weatherlink.com 1.10,2013-04-10 22:44:00,
2013-04-10 17:59:00,69.6,66.0,28.94,East,91,0.0,2.0,87,0.00,,,0.12,weatherlink.com 1.10,2013-04-10 22:59:00,
2013-04-10 18:14:00,75.8,67.0,28.93,East,93,5.0,11.0,73,0.00,,,0.12,weatherlink.com 1.10,2013-04-10 23:14:00,
2013-04-10 18:29:00,76.4,67.0,28.92,SE,124,9.0,12.0,72,0.00,,,0.12,weatherlink.com 1.10,2013-04-10 23:29:00,
2013-04-10 18:44:00,76.4,66.0,28.92,ESE,115,4.0,13.0,71,0.00,,,0.12,weatherlink.com 1.10,2013-04-10 23:44:00,
2013-04-10 18:59:00,76.5,67.0,28.93,SE,131,6.0,13.0,72,0.00,,,0.12,weatherlink.com 1.10,2013-04-10 23:59:00,
2013-04-10 19:14:00,76.5,66.0,28.92,SE,129,5.0,14.0,70,0.00,,,0.12,weatherlink.com 1.10,2013-04-11 00:14:00,
2013-04-10 19:29:00,75.3,66.0,28.92,South,170,4.0,9.0,73,0.00,,,0.12,weatherlink.com 1.10,2013-04-11 00:29:00,
2013-04-10 19:44:00,75.3,66.0,28.95,SSW,201,20.0,26.0,72,0.01,,,0.13,weatherlink.com 1.10,2013-04-11 00:44:00,
2013-04-10 19:59:00,66.6,62.0,29.05,WSW,243,15.0,41.0,86,0.15,,,0.27,weatherlink.com 1.10,2013-04-11 00:59:00,
2013-04-10 20:14:00,61.6,60.0,29.01,WNW,284,10.0,25.0,93,0.40,,,0.52,weatherlink.com 1.10,2013-04-11 01:14:00,
2013-04-10 20:29:00,60.5,59.0,29.04,West,281,6.0,18.0,95,0.50,,,0.62,weatherlink.com 1.10,2013-04-11 01:29:00,
2013-04-10 20:44:00,59.9,59.0,29.03,WNW,283,4.0,15.0,95,0.54,,,0.67,weatherlink.com 1.10,2013-04-11 01:44:00,
2013-04-10 20:59:00,59.7,58.0,29.01,WNW,302,6.0,10.0,95,0.43,,,0.72,weatherlink.com 1.10,2013-04-11 01:59:00,
2013-04-10 21:14:00,59.3,58.0,29.04,SSE,156,1.0,6.0,95,0.24,,,0.77,weatherlink.com 1.10,2013-04-11 02:14:00,
2013-04-10 21:29:00,59.2,58.0,29.05,SSW,200,0.0,2.0,96,0.22,,,0.84,weatherlink.com 1.10,2013-04-11 02:29:00,
2013-04-10 21:44:00,59.3,58.0,29.04,NW,325,0.0,2.0,96,0.24,,,0.92,weatherlink.com 1.10,2013-04-11 02:44:00,
2013-04-10 21:59:00,59.2,58.0,29.04,East,81,1.0,3.0,96,0.23,,,0.95,weatherlink.com 1.10,2013-04-11 02:59:00,
2013-04-10 22:14:00,59.2,58.0,29.03,ENE,63,3.0,4.0,96,0.24,,,1.01,weatherlink.com 1.10,2013-04-11 03:14:00,
2013-04-10 22:44:00,59.0,58.0,29.00,ENE,75,5.0,7.0,96,0.17,,,1.09,weatherlink.com 1.10,2013-04-11 03:44:00,
2013-04-10 22:59:00,59.2,58.0,29.00,ENE,75,8.0,9.0,97,0.14,,,1.10,weatherlink.com 1.10,2013-04-11 03:59:00,
2013-04-10 23:15:00,59.3,59.0,28.99,East,96,7.0,10.0,97,0.10,,,1.11,weatherlink.com 1.10,2013-04-11 04:15:00,
2013-04-10 23:29:00,59.5,59.0,29.01,East,93,3.0,9.0,97,0.04,,,1.11,weatherlink.com 1.10,2013-04-11 04:29:00,
2013-04-10 23:45:00,59.6,59.0,29.00,ENE,58,4.0,6.0,97,0.01,,,1.11,weatherlink.com 1.10,2013-04-11 04:45:00,